Time;durP1;ratioP1;P1;durP2;ratioP2;P2;SDS_P1;SDS_P2;PMS_P1;PMS_P2;Temp;Humidity;BMP_temperature;BMP_pressure;BME280_temperature;BME280_humidity;BME280_pressure;Samples;Min_cycle;Max_cycle;Signal;HPM_P1;HPM_P2
2021/07/24 00:00:06;;;;;;;21.70;8.03;;;18.80;34.00;;;;;;5031533;28;20914;-72
2021/07/24 00:02:32;;;;;;;16.47;7.70;;;18.80;34.40;;;;;;5031300;28;20406;-72
2021/07/24 00:04:57;;;;;;;10.77;6.87;;;18.80;33.80;;;;;;5031065;28;20758;-72
2021/07/24 00:07:23;;;;;;;12.70;7.73;;;18.80;33.60;;;;;;5031353;28;20601;-71
2021/07/24 00:09:48;;;;;;;22.27;7.23;;;18.90;33.60;;;;;;5031721;28;20591;-72
2021/07/24 00:12:14;;;;;;;14.80;8.00;;;18.90;33.60;;;;;;5031321;28;20687;-73
2021/07/24 00:14:40;;;;;;;10.30;7.23;;;18.80;33.80;;;;;;5031628;28;20184;-72
2021/07/24 00:17:06;;;;;;;9.90;7.40;;;18.90;33.30;;;;;;5031240;28;20200;-73
2021/07/24 00:19:31;;;;;;;12.50;7.37;;;18.90;33.30;;;;;;5031298;28;20916;-72
2021/07/24 00:21:57;;;;;;;11.63;7.33;;;18.90;33.30;;;;;;5031215;28;20587;-73
2021/07/24 00:24:22;;;;;;;14.33;8.20;;;18.90;33.40;;;;;;5031378;28;20488;-72
2021/07/24 00:26:48;;;;;;;12.03;8.13;;;18.90;33.10;;;;;;5031441;28;20267;-72
2021/07/24 00:29:15;;;;;;;17.37;7.83;;;18.80;33.30;;;;;;5030912;28;20241;-72
2021/07/24 00:31:41;;;;;;;12.13;7.07;;;18.80;33.40;;;;;;5034898;28;20199;-73
2021/07/24 00:34:07;;;;;;;14.40;8.30;;;18.90;33.50;;;;;;5035069;28;20437;-74
2021/07/24 00:36:33;;;;;;;11.73;8.03;;;18.80;33.40;;;;;;5035487;28;20393;-73
2021/07/24 00:38:58;;;;;;;14.60;8.90;;;18.70;33.90;;;;;;5035768;28;20266;-73
2021/07/24 00:41:38;;;;;;;13.40;7.53;;;18.80;33.80;;;;;;5035318;28;20496;-72
2021/07/24 00:44:07;;;;;;;12.53;7.80;;;18.70;34.30;;;;;;5035608;28;20167;-72
2021/07/24 00:46:35;;;;;;;22.90;11.30;;;18.70;34.10;;;;;;5035246;28;20384;-72
2021/07/24 00:49:02;;;;;;;12.83;8.53;;;18.60;34.20;;;;;;5035061;28;20452;-72
2021/07/24 00:51:32;;;;;;;14.67;8.87;;;18.40;35.00;;;;;;5034377;28;20504;-72
2021/07/24 00:53:58;;;;;;;15.90;8.30;;;18.20;36.00;;;;;;5018388;28;20439;-73
2021/07/24 00:56:25;;;;;;;9.93;8.13;;;18.10;36.70;;;;;;5035503;28;20877;-72
2021/07/24 00:58:51;;;;;;;14.97;7.87;;;18.10;37.10;;;;;;5023292;28;20431;-72
2021/07/24 01:01:17;;;;;;;9.23;8.20;;;18.10;37.30;;;;;;5016567;28;20449;-74
2021/07/24 01:03:43;;;;;;;15.60;8.10;;;18.10;37.10;;;;;;5035177;28;20935;-72
2021/07/24 01:06:08;;;;;;;13.30;8.73;;;18.10;37.10;;;;;;5035791;28;20433;-72
2021/07/24 01:08:36;;;;;;;17.97;8.60;;;18.20;36.80;;;;;;5035991;28;20190;-73
2021/07/24 01:11:03;;;;;;;15.43;9.03;;;18.30;36.50;;;;;;5035294;28;20286;-74
2021/07/24 01:13:29;;;;;;;25.43;9.07;;;18.20;36.60;;;;;;5034810;28;20409;-74
2021/07/24 01:15:55;;;;;;;14.67;9.13;;;18.20;36.90;;;;;;5016537;28;20423;-71
2021/07/24 01:18:21;;;;;;;12.87;8.20;;;18.00;37.70;;;;;;5034630;28;20201;-72
2021/07/24 01:20:48;;;;;;;13.27;9.20;;;17.90;38.20;;;;;;5034451;28;20199;-73
2021/07/24 01:23:15;;;;;;;13.80;9.03;;;17.90;38.20;;;;;;5034431;28;20483;-73
2021/07/24 01:25:45;;;;;;;13.13;9.10;;;17.70;38.80;;;;;;5034065;28;20422;-72
2021/07/24 01:28:11;;;;;;;14.10;7.93;;;17.70;39.50;;;;;;5034052;28;20429;-72
2021/07/24 01:30:38;;;;;;;19.17;9.07;;;17.70;39.00;;;;;;5033449;28;20416;-72
2021/07/24 01:33:03;;;;;;;27.13;9.30;;;17.80;39.10;;;;;;5034149;28;20814;-72
2021/07/24 01:35:29;;;;;;;12.80;8.60;;;17.70;39.20;;;;;;5034153;28;20385;-72
2021/07/24 01:37:55;;;;;;;16.80;9.10;;;17.60;39.50;;;;;;5033924;28;20199;-72
2021/07/24 01:40:20;;;;;;;18.33;9.83;;;17.50;40.60;;;;;;5033508;28;20200;-73
2021/07/24 01:42:46;;;;;;;12.23;9.17;;;17.40;41.90;;;;;;5033186;28;20259;-72
2021/07/24 01:45:11;;;;;;;15.33;10.00;;;17.50;41.10;;;;;;5033512;28;20571;-73
2021/07/24 01:47:37;;;;;;;13.53;9.40;;;17.60;40.60;;;;;;5032698;28;20179;-73
2021/07/24 01:52:51;;;;;;;14.97;9.90;;;17.70;39.70;;;;;;5034062;28;20186;-72
2021/07/24 01:55:25;;;;;;;15.83;8.93;;;17.50;40.20;;;;;;5033635;28;20385;-72
2021/07/24 01:57:53;;;;;;;13.50;10.13;;;17.30;41.50;;;;;;5033405;28;21041;-72
2021/07/24 02:00:19;;;;;;;14.00;10.30;;;17.10;42.80;;;;;;5033005;28;20446;-72
2021/07/24 02:02:49;;;;;;;18.90;9.90;;;17.00;43.70;;;;;;5033591;28;20405;-72
2021/07/24 02:05:32;;;;;;;23.33;9.93;;;17.10;43.70;;;;;;5033351;28;20380;-73
2021/07/24 02:08:01;;;;;;;16.27;10.20;;;17.00;44.40;;;;;;5033551;28;20388;-73
2021/07/24 02:10:27;;;;;;;14.57;10.30;;;17.00;44.80;;;;;;5032848;28;20449;-73
2021/07/24 02:12:52;;;;;;;20.50;10.50;;;16.90;45.40;;;;;;5033152;28;21002;-71
2021/07/24 02:15:18;;;;;;;20.27;11.20;;;16.80;46.30;;;;;;5033188;28;20208;-71
2021/07/24 02:17:44;;;;;;;13.03;9.37;;;16.90;46.80;;;;;;5033293;28;20210;-72
2021/07/24 02:20:11;;;;;;;16.80;11.40;;;17.20;44.70;;;;;;5033065;28;20699;-72
2021/07/24 02:22:36;;;;;;;16.90;11.00;;;17.40;43.80;;;;;;5033243;28;20589;-70
2021/07/24 02:25:02;;;;;;;14.80;10.37;;;17.40;43.90;;;;;;5032925;28;20457;-71
2021/07/24 02:27:28;;;;;;;17.73;10.23;;;17.30;44.30;;;;;;5032871;28;20218;-71
2021/07/24 02:29:53;;;;;;;19.83;10.63;;;17.30;44.20;;;;;;5032725;28;20183;-71
2021/07/24 02:32:19;;;;;;;14.67;8.93;;;17.30;45.00;;;;;;5032637;28;20167;-72
2021/07/24 02:34:44;;;;;;;16.53;11.30;;;17.30;46.60;;;;;;5032588;28;20202;-71
2021/07/24 02:37:10;;;;;;;18.83;10.70;;;17.30;46.10;;;;;;5032755;28;20192;-71
2021/07/24 02:39:36;;;;;;;16.30;10.07;;;17.40;45.80;;;;;;5032366;28;20234;-71
2021/07/24 02:42:01;;;;;;;16.93;10.27;;;17.30;45.80;;;;;;5032407;28;20226;-71
2021/07/24 02:44:27;;;;;;;16.57;9.87;;;17.30;46.10;;;;;;5032304;28;20168;-72
2021/07/24 02:46:53;;;;;;;20.40;9.60;;;17.30;46.30;;;;;;5032810;28;20179;-70
2021/07/24 02:49:18;;;;;;;18.30;10.30;;;17.20;46.60;;;;;;5032587;28;20182;-71
2021/07/24 02:51:44;;;;;;;15.73;10.00;;;17.20;46.60;;;;;;5032228;28;20261;-72
2021/07/24 02:54:09;;;;;;;15.97;9.90;;;17.00;47.80;;;;;;5030741;28;20193;-72
2021/07/24 02:56:35;;;;;;;19.10;11.50;;;16.90;48.90;;;;;;5032180;28;20270;-72
2021/07/24 02:59:00;;;;;;;15.80;10.43;;;17.00;48.10;;;;;;5032500;28;20179;-72
2021/07/24 03:01:26;;;;;;;16.57;11.07;;;17.00;47.50;;;;;;5031858;28;20564;-72
2021/07/24 03:03:51;;;;;;;15.20;9.70;;;17.10;46.80;;;;;;5032471;28;20203;-73
2021/07/24 03:06:17;;;;;;;16.43;10.80;;;17.10;46.90;;;;;;5020113;28;20186;-72
2021/07/24 03:08:42;;;;;;;21.30;11.63;;;17.10;46.70;;;;;;5032189;28;20188;-71
2021/07/24 03:11:08;;;;;;;23.70;11.40;;;17.00;46.50;;;;;;5032590;28;20251;-73
2021/07/24 03:13:34;;;;;;;17.07;11.10;;;17.00;47.00;;;;;;5033023;28;20624;-73
2021/07/24 03:15:59;;;;;;;19.37;12.23;;;17.00;47.30;;;;;;5032343;28;20197;-72
2021/07/24 03:18:25;;;;;;;20.67;11.40;;;16.90;48.20;;;;;;5032096;28;20241;-73
2021/07/24 03:20:50;;;;;;;19.97;12.17;;;16.70;49.30;;;;;;5032483;28;20241;-72
2021/07/24 03:23:16;;;;;;;20.17;12.60;;;16.60;50.30;;;;;;5033534;28;20176;-73
2021/07/24 03:25:44;;;;;;;20.50;11.43;;;16.50;51.70;;;;;;5030365;28;20262;-72
2021/07/24 03:28:10;;;;;;;22.03;10.63;;;16.50;50.90;;;;;;5012358;28;20524;-71
2021/07/24 03:30:38;;;;;;;19.13;11.23;;;16.60;50.50;;;;;;5011810;28;20458;-72
2021/07/24 03:33:04;;;;;;;13.80;10.60;;;16.60;50.50;;;;;;5028927;28;20233;-72
2021/07/24 03:35:29;;;;;;;20.55;12.68;;;16.60;49.90;;;;;;5030637;28;20430;-71
2021/07/24 03:37:55;;;;;;;18.87;12.73;;;16.70;50.20;;;;;;5030794;28;20811;-72
2021/07/24 03:40:21;;;;;;;16.87;13.00;;;16.80;49.20;;;;;;5030921;28;20899;-72
2021/07/24 03:42:47;;;;;;;17.65;12.90;;;16.90;48.50;;;;;;5030798;28;20482;-72
2021/07/24 03:45:12;;;;;;;23.33;12.90;;;16.90;48.20;;;;;;5031236;28;20512;-71
2021/07/24 03:47:38;;;;;;;17.40;12.33;;;16.90;47.70;;;;;;5030775;28;20760;-71
2021/07/24 03:50:03;;;;;;;19.77;12.90;;;16.90;48.20;;;;;;5030201;28;20481;-71
2021/07/24 03:52:29;;;;;;;21.35;12.77;;;16.90;48.30;;;;;;5029910;28;20403;-71
2021/07/24 03:54:54;;;;;;;18.15;12.07;;;16.90;48.30;;;;;;5030595;28;20390;-70
2021/07/24 03:57:20;;;;;;;17.10;11.70;;;17.00;47.20;;;;;;5028795;28;20480;-70
2021/07/24 03:59:46;;;;;;;19.40;12.50;;;17.10;47.20;;;;;;5009004;28;20436;-70
2021/07/24 04:02:18;;;;;;;18.73;12.43;;;17.20;46.10;;;;;;5018746;28;20398;-70
2021/07/24 04:04:45;;;;;;;20.87;12.53;;;17.30;45.50;;;;;;5030491;28;20465;-69
2021/07/24 04:07:12;;;;;;;17.92;11.70;;;17.40;45.40;;;;;;5035174;28;20706;-71
2021/07/24 04:09:37;;;;;;;22.25;13.02;;;17.40;44.80;;;;;;5038691;28;20379;-74
2021/07/24 04:12:04;;;;;;;21.13;12.87;;;17.30;45.00;;;;;;5034056;28;20395;-72
2021/07/24 04:14:29;;;;;;;17.92;12.40;;;17.30;46.10;;;;;;5034175;28;20424;-72
2021/07/24 04:16:55;;;;;;;17.80;11.83;;;17.40;45.20;;;;;;5034410;28;20460;-71
2021/07/24 04:19:21;;;;;;;17.23;12.48;;;17.50;44.20;;;;;;5033471;28;20394;-71
2021/07/24 04:21:46;;;;;;;21.83;13.10;;;17.60;43.90;;;;;;5031745;28;20394;-71
2021/07/24 04:24:12;;;;;;;19.30;13.80;;;17.50;44.80;;;;;;5033584;28;20387;-71
2021/07/24 04:26:38;;;;;;;17.00;12.48;;;17.40;45.10;;;;;;5033026;28;20436;-72
2021/07/24 04:29:08;;;;;;;19.77;12.05;;;17.30;46.60;;;;;;5033574;28;20813;-71
2021/07/24 04:31:34;;;;;;;19.47;12.87;;;17.30;47.50;;;;;;5032604;28;20451;-73
2021/07/24 04:33:59;;;;;;;18.87;12.73;;;17.50;45.80;;;;;;5033625;28;20482;-72
2021/07/24 04:36:25;;;;;;;16.90;12.60;;;17.50;45.90;;;;;;5033175;28;20800;-72
2021/07/24 04:38:50;;;;;;;20.38;12.13;;;17.70;45.00;;;;;;5033519;28;20406;-72
2021/07/24 04:41:17;;;;;;;17.43;12.63;;;17.90;43.50;;;;;;5033019;28;20379;-71
2021/07/24 04:43:44;;;;;;;17.98;12.77;;;18.10;42.40;;;;;;5033550;28;20395;-71
2021/07/24 04:46:10;;;;;;;20.10;13.45;;;18.20;41.40;;;;;;5032981;28;20402;-71
2021/07/24 04:48:36;;;;;;;25.15;15.40;;;18.40;40.90;;;;;;5033223;28;20390;-73
2021/07/24 04:51:02;;;;;;;59.77;38.60;;;18.20;41.40;;;;;;5032064;28;20403;-71
2021/07/24 04:53:28;;;;;;;76.32;49.13;;;18.40;41.60;;;;;;5032958;28;20389;-71
2021/07/24 04:55:54;;;;;;;25.20;18.38;;;18.40;42.30;;;;;;5032937;28;20387;-71
2021/07/24 04:58:21;;;;;;;19.08;13.10;;;18.40;42.10;;;;;;5026366;28;20408;-71
2021/07/24 05:00:47;;;;;;;19.58;12.90;;;18.30;42.20;;;;;;5031101;28;20452;-72
2021/07/24 05:03:14;;;;;;;17.25;12.07;;;18.40;41.40;;;;;;5031184;28;20485;-72
2021/07/24 05:05:41;;;;;;;22.35;12.98;;;18.60;40.60;;;;;;5032127;28;20751;-72
2021/07/24 05:08:11;;;;;;;21.20;14.43;;;18.60;40.10;;;;;;5030932;28;20486;-72
2021/07/24 05:10:37;;;;;;;19.15;13.43;;;18.60;40.50;;;;;;5032287;28;20425;-72
2021/07/24 05:13:03;;;;;;;18.98;13.70;;;18.70;40.40;;;;;;5032329;28;20418;-73
2021/07/24 05:15:29;;;;;;;17.38;12.02;;;18.90;39.90;;;;;;5014954;28;20725;-71
2021/07/24 05:17:54;;;;;;;17.00;11.70;;;19.00;39.10;;;;;;5031732;28;20476;-71
2021/07/24 05:20:20;;;;;;;23.17;15.82;;;19.20;37.90;;;;;;5032626;28;20383;-72
2021/07/24 05:22:46;;;;;;;17.75;12.98;;;19.50;37.20;;;;;;5032604;28;20922;-71
2021/07/24 05:25:12;;;;;;;22.37;15.40;;;19.60;37.40;;;;;;5032659;28;20426;-71
2021/07/24 05:27:38;;;;;;;16.25;11.70;;;20.00;35.20;;;;;;5027175;28;20406;-71
2021/07/24 05:30:04;;;;;;;20.07;14.30;;;20.10;34.60;;;;;;5032180;28;20403;-72
2021/07/24 05:32:30;;;;;;;21.33;13.10;;;20.10;34.60;;;;;;5032586;28;20483;-72
2021/07/24 05:34:55;;;;;;;18.10;12.80;;;20.10;35.10;;;;;;5032704;28;20470;-72
2021/07/24 05:37:21;;;;;;;19.60;12.60;;;20.10;34.90;;;;;;5032101;28;20440;-71
2021/07/24 05:39:46;;;;;;;18.42;12.75;;;20.20;34.60;;;;;;5032368;28;20419;-71
2021/07/24 05:42:12;;;;;;;20.57;13.73;;;20.40;34.00;;;;;;5031502;28;20783;-71
2021/07/24 05:44:37;;;;;;;20.10;13.83;;;20.50;33.10;;;;;;5032296;28;20748;-72
2021/07/24 05:47:04;;;;;;;25.20;18.40;;;20.50;33.10;;;;;;5032491;28;20387;-71
2021/07/24 05:49:30;;;;;;;19.47;12.97;;;20.60;32.80;;;;;;5032092;28;20399;-71
2021/07/24 05:51:55;;;;;;;18.93;13.80;;;20.60;32.80;;;;;;5030435;23;20429;-74
2021/07/24 05:54:22;;;;;;;21.10;14.48;;;20.60;32.90;;;;;;5012217;28;20407;-74
2021/07/24 05:56:49;;;;;;;18.20;13.15;;;20.70;32.50;;;;;;4995855;28;20443;-73
2021/07/24 05:59:17;;;;;;;18.17;12.57;;;20.80;32.00;;;;;;5014848;28;20389;-75
2021/07/24 06:01:43;;;;;;;17.77;12.80;;;20.70;32.50;;;;;;5028994;28;20406;-75
2021/07/24 06:04:08;;;;;;;20.03;13.93;;;20.80;32.30;;;;;;5033935;28;20746;-73
2021/07/24 06:06:34;;;;;;;15.50;11.60;;;20.90;32.30;;;;;;5034759;28;20736;-74
2021/07/24 06:09:00;;;;;;;17.00;12.40;;;21.10;31.90;;;;;;5017031;28;20399;-74
2021/07/24 06:11:26;;;;;;;16.08;12.23;;;21.20;31.30;;;;;;5033484;28;20905;-73
2021/07/24 06:13:51;;;;;;;17.17;13.05;;;21.20;31.60;;;;;;5033053;28;20721;-74
2021/07/24 06:16:17;;;;;;;17.27;12.57;;;21.20;31.00;;;;;;5033072;28;20379;-74
2021/07/24 06:18:43;;;;;;;16.23;12.93;;;21.10;32.20;;;;;;5032538;28;20484;-75
2021/07/24 06:21:14;;;;;;;20.15;13.10;;;21.10;32.30;;;;;;5032415;28;20398;-74
2021/07/24 06:23:40;;;;;;;16.97;12.77;;;21.10;32.40;;;;;;5030214;28;20387;-73
2021/07/24 06:26:05;;;;;;;21.10;12.97;;;21.10;32.40;;;;;;5032832;28;20775;-76
2021/07/24 06:28:31;;;;;;;16.83;12.15;;;21.20;32.00;;;;;;5032739;28;20934;-75
2021/07/24 06:30:59;;;;;;;18.70;13.47;;;21.20;31.70;;;;;;5031935;28;20410;-75
2021/07/24 06:33:25;;;;;;;20.58;13.50;;;21.10;31.90;;;;;;5030961;28;20951;-75
2021/07/24 06:35:51;;;;;;;20.60;13.00;;;21.30;32.00;;;;;;5030513;28;20478;-75
2021/07/24 06:38:16;;;;;;;28.07;13.30;;;21.40;31.90;;;;;;5030656;28;20407;-75
2021/07/24 06:40:42;;;;;;;20.13;13.20;;;21.70;30.90;;;;;;5031474;28;20914;-75
2021/07/24 06:43:07;;;;;;;22.30;12.80;;;22.00;29.80;;;;;;5031320;28;20410;-75
2021/07/24 06:45:33;;;;;;;18.20;13.50;;;22.10;29.40;;;;;;5024637;28;20423;-75
2021/07/24 06:47:58;;;;;;;20.05;12.25;;;22.20;29.00;;;;;;5014684;28;20396;-75
2021/07/24 06:50:24;;;;;;;18.10;12.87;;;22.40;28.00;;;;;;5032139;28;20395;-77
2021/07/24 06:52:57;;;;;;;18.92;12.93;;;22.50;27.50;;;;;;5032552;28;20883;-75
2021/07/24 06:55:22;;;;;;;28.00;13.35;;;22.70;27.00;;;;;;5031835;28;20406;-75
2021/07/24 06:57:48;;;;;;;18.20;12.40;;;22.60;27.20;;;;;;5029233;28;20415;-75
2021/07/24 07:00:13;;;;;;;19.40;13.27;;;22.60;26.40;;;;;;5015485;28;20393;-76
2021/07/24 07:02:39;;;;;;;18.03;13.30;;;22.70;27.00;;;;;;5035095;28;20395;-78
2021/07/24 07:05:05;;;;;;;18.10;12.80;;;22.80;26.80;;;;;;5036569;28;20386;-78
2021/07/24 07:07:30;;;;;;;17.13;12.20;;;22.90;26.90;;;;;;5035235;28;20402;-77
2021/07/24 07:09:56;;;;;;;18.50;13.23;;;22.80;27.20;;;;;;5036666;28;20413;-77
2021/07/24 07:12:22;;;;;;;20.10;13.30;;;22.70;27.30;;;;;;5042715;28;20399;-76
2021/07/24 07:14:47;;;;;;;21.52;12.68;;;22.70;27.60;;;;;;5045527;28;20470;-77
2021/07/24 07:17:15;;;;;;;19.75;13.02;;;22.90;27.70;;;;;;5039715;28;20419;-76
2021/07/24 07:19:41;;;;;;;20.52;13.00;;;23.00;27.40;;;;;;5037633;28;20812;-76
2021/07/24 07:22:06;;;;;;;22.35;13.73;;;23.00;27.40;;;;;;5034059;28;20413;-76
2021/07/24 07:24:32;;;;;;;20.90;12.43;;;23.00;26.90;;;;;;5032200;28;20422;-76
2021/07/24 07:26:58;;;;;;;20.67;13.00;;;23.30;25.80;;;;;;5034941;28;20907;-77
2021/07/24 07:29:24;;;;;;;19.95;13.13;;;23.60;24.80;;;;;;5029717;28;20468;-77
2021/07/24 07:31:50;;;;;;;18.98;12.40;;;23.90;24.10;;;;;;5029985;28;20395;-77
2021/07/24 07:34:16;;;;;;;21.48;12.18;;;24.10;23.50;;;;;;5029959;28;20807;-76
2021/07/24 07:36:41;;;;;;;18.88;12.40;;;23.90;22.90;;;;;;5031614;28;20828;-77
2021/07/24 07:39:07;;;;;;;18.43;13.00;;;23.70;24.00;;;;;;5028494;28;20401;-77
2021/07/24 07:41:32;;;;;;;19.70;12.60;;;23.80;24.30;;;;;;5013408;28;20404;-77
2021/07/24 07:43:58;;;;;;;18.43;13.00;;;23.90;24.50;;;;;;5031436;28;20394;-78
2021/07/24 07:46:23;;;;;;;17.58;12.55;;;24.00;24.30;;;;;;5030669;28;20390;-76
2021/07/24 07:48:49;;;;;;;20.13;12.43;;;24.20;23.90;;;;;;5031358;28;20422;-76
2021/07/24 07:51:15;;;;;;;20.60;13.20;;;24.30;23.90;;;;;;5010730;28;20777;-78
2021/07/24 07:53:40;;;;;;;16.67;12.20;;;24.60;23.00;;;;;;5029579;28;20457;-76
2021/07/24 07:56:06;;;;;;;16.05;11.73;;;24.50;23.10;;;;;;5027128;28;20415;-74
2021/07/24 07:58:32;;;;;;;17.42;12.32;;;24.20;23.50;;;;;;5023480;28;20406;-75
2021/07/24 08:00:58;;;;;;;15.57;12.43;;;24.10;24.20;;;;;;5029782;28;20481;-74
2021/07/24 08:03:26;;;;;;;19.17;12.60;;;24.30;24.70;;;;;;5030028;28;20498;-76
2021/07/24 08:05:53;;;;;;;18.10;13.00;;;24.50;23.80;;;;;;5028325;28;20402;-76
2021/07/24 08:08:18;;;;;;;15.10;12.07;;;24.60;23.50;;;;;;5029304;28;20457;-75
2021/07/24 08:10:44;;;;;;;16.42;12.20;;;25.00;23.50;;;;;;5029440;28;20399;-76
2021/07/24 08:13:14;;;;;;;22.77;13.00;;;25.20;22.10;;;;;;5027184;28;20495;-76
2021/07/24 08:15:40;;;;;;;19.05;12.98;;;25.30;22.00;;;;;;5027591;28;20831;-76
2021/07/24 08:18:06;;;;;;;17.38;12.90;;;25.30;22.60;;;;;;5029867;28;20411;-73
2021/07/24 08:20:31;;;;;;;15.20;11.45;;;25.30;22.20;;;;;;5028675;28;20418;-76
2021/07/24 08:22:57;;;;;;;16.63;12.43;;;25.50;22.10;;;;;;5026676;28;20407;-76
2021/07/24 08:25:22;;;;;;;18.65;13.20;;;25.50;21.70;;;;;;5026649;28;20831;-76
2021/07/24 08:27:48;;;;;;;18.33;13.10;;;25.70;21.60;;;;;;5029036;28;20399;-76
2021/07/24 08:30:13;;;;;;;17.90;11.97;;;25.80;20.40;;;;;;5029745;28;20407;-76
2021/07/24 08:32:39;;;;;;;19.02;12.27;;;25.90;20.40;;;;;;5021778;28;20448;-76
2021/07/24 08:35:05;;;;;;;17.07;12.73;;;26.20;20.40;;;;;;5026776;28;20426;-76
2021/07/24 08:37:32;;;;;;;22.13;13.20;;;26.50;19.90;;;;;;5029138;28;20488;-76
2021/07/24 08:39:57;;;;;;;16.02;12.65;;;26.40;19.90;;;;;;5010849;28;20546;-77
2021/07/24 08:42:39;;;;;;;16.57;13.10;;;26.20;19.80;;;;;;5027019;28;20881;-77
2021/07/24 08:45:06;;;;;;;15.95;13.55;;;26.30;19.80;;;;;;5022096;28;20391;-77
2021/07/24 08:47:32;;;;;;;17.90;12.82;;;26.40;19.30;;;;;;5030624;28;20472;-77
2021/07/24 08:49:59;;;;;;;16.23;13.30;;;26.70;18.80;;;;;;5030788;28;20390;-76
2021/07/24 08:52:28;;;;;;;15.10;12.57;;;26.80;17.90;;;;;;5032160;28;20415;-74
2021/07/24 08:54:55;;;;;;;17.27;12.20;;;26.90;17.80;;;;;;5034575;28;20391;-76
2021/07/24 08:57:28;;;;;;;15.63;13.00;;;27.30;17.40;;;;;;5032630;28;20418;-76
2021/07/24 08:59:57;;;;;;;15.32;12.70;;;27.20;17.00;;;;;;5024683;28;20414;-77
2021/07/24 09:02:28;;;;;;;19.88;13.32;;;27.00;17.10;;;;;;5038501;28;20419;-77
2021/07/24 09:04:55;;;;;;;22.40;16.75;;;27.10;17.20;;;;;;5016793;28;20545;-76
2021/07/24 09:07:26;;;;;;;18.93;13.23;;;27.10;17.70;;;;;;5035516;28;20877;-77
2021/07/24 09:09:55;;;;;;;20.33;13.75;;;27.20;17.50;;;;;;5039401;28;20413;-76
2021/07/24 09:12:21;;;;;;;23.00;13.38;;;27.20;16.40;;;;;;5036298;28;20399;-75
2021/07/24 09:14:46;;;;;;;17.95;13.25;;;27.40;16.90;;;;;;5035982;28;20402;-77
2021/07/24 09:17:18;;;;;;;15.17;13.20;;;27.10;15.60;;;;;;5033290;28;20791;-77
2021/07/24 09:19:43;;;;;;;18.60;13.45;;;27.00;16.40;;;;;;5016384;28;20407;-78
2021/07/24 09:22:29;;;;;;;19.73;13.38;;;26.70;16.10;;;;;;5034772;28;20398;-77
2021/07/24 09:25:15;;;;;;;18.73;13.17;;;26.50;16.70;;;;;;5018973;28;20593;-77
2021/07/24 09:27:42;;;;;;;32.43;13.00;;;26.30;17.20;;;;;;5019673;28;20430;-77
2021/07/24 09:30:11;;;;;;;26.20;12.43;;;26.30;18.10;;;;;;5035309;28;20449;-76
2021/07/24 09:32:36;;;;;;;21.73;13.03;;;26.20;18.40;;;;;;5012126;28;20510;-77
2021/07/24 09:35:02;;;;;;;18.00;13.00;;;26.00;18.80;;;;;;5008893;28;20559;-78
2021/07/24 09:37:32;;;;;;;16.90;12.47;;;26.00;19.00;;;;;;5014804;28;20345;-77
2021/07/24 09:40:19;;;;;;;16.80;14.13;;;25.90;19.20;;;;;;5032470;28;20422;-77
2021/07/24 09:42:44;;;;;;;18.33;12.83;;;25.70;19.60;;;;;;5027760;28;20425;-78
2021/07/24 09:45:11;;;;;;;16.40;12.50;;;25.60;20.00;;;;;;5033937;28;20429;-78
2021/07/24 09:47:36;;;;;;;20.80;14.07;;;25.50;20.00;;;;;;5042118;28;20266;-79
2021/07/24 09:50:17;;;;;;;25.77;15.60;;;25.50;20.10;;;;;;5038195;28;20462;-79
2021/07/24 09:52:53;;;;;;;20.80;14.33;;;25.60;20.00;;;;;;5012130;28;20334;-78
2021/07/24 09:55:25;;;;;;;17.67;13.37;;;25.50;20.20;;;;;;5049803;28;20464;-76
2021/07/24 09:57:52;;;;;;;22.07;13.30;;;25.60;20.40;;;;;;5054971;28;20467;-77
2021/07/24 10:00:27;;;;;;;19.73;13.53;;;25.60;20.10;;;;;;5056170;28;20411;-77
2021/07/24 10:03:01;;;;;;;21.30;15.60;;;25.70;19.90;;;;;;5054323;28;20435;-78
2021/07/24 10:05:32;;;;;;;20.90;14.23;;;25.80;19.50;;;;;;5047567;28;20411;-77
2021/07/24 10:08:01;;;;;;;29.50;15.27;;;26.10;19.70;;;;;;5055654;28;20427;-78
2021/07/24 10:10:28;;;;;;;26.40;13.77;;;26.40;18.70;;;;;;5054313;28;20851;-79
2021/07/24 10:12:53;;;;;;;18.33;13.00;;;26.60;18.30;;;;;;5054880;28;20426;-78
2021/07/24 10:15:19;;;;;;;24.60;14.67;;;26.70;17.60;;;;;;5056319;28;20500;-78
2021/07/24 10:17:46;;;;;;;20.20;13.10;;;26.80;17.60;;;;;;5053467;28;20202;-79
2021/07/24 10:20:15;;;;;;;16.60;13.00;;;26.70;17.40;;;;;;5054617;28;20421;-78
2021/07/24 10:22:40;;;;;;;19.30;13.40;;;26.80;17.10;;;;;;5053984;28;20421;-78
2021/07/24 10:25:08;;;;;;;23.27;13.37;;;26.70;17.20;;;;;;5054052;28;20911;-77
2021/07/24 10:27:36;;;;;;;25.20;14.00;;;26.70;17.40;;;;;;5053464;28;20655;-78
2021/07/24 10:30:04;;;;;;;17.67;12.63;;;26.70;17.80;;;;;;5053656;28;20488;-78
2021/07/24 10:32:37;;;;;;;17.20;13.00;;;26.60;17.20;;;;;;5053547;28;20428;-79
2021/07/24 10:35:04;;;;;;;21.97;13.10;;;26.50;18.10;;;;;;5053850;28;20795;-78
2021/07/24 10:37:42;;;;;;;21.73;13.50;;;26.40;17.90;;;;;;5053141;28;20449;-78
2021/07/24 10:40:25;;;;;;;22.50;13.27;;;26.30;17.70;;;;;;5053255;28;20425;-78
2021/07/24 10:42:51;;;;;;;20.30;13.80;;;26.20;17.80;;;;;;5035552;28;20995;-78
2021/07/24 10:45:37;;;;;;;17.17;13.27;;;26.00;18.20;;;;;;5053019;28;20944;-78
2021/07/24 10:48:15;;;;;;;13.50;11.83;;;26.00;18.60;;;;;;5053251;28;20418;-78
2021/07/24 10:50:52;;;;;;;18.27;13.77;;;25.90;18.30;;;;;;5035140;28;20876;-77
2021/07/24 10:53:18;;;;;;;20.93;14.37;;;25.70;18.40;;;;;;5052511;28;20423;-77
2021/07/24 10:55:46;;;;;;;23.37;13.83;;;25.50;19.10;;;;;;5053572;28;20534;-77
2021/07/24 10:58:12;;;;;;;22.30;13.73;;;25.30;19.70;;;;;;5028271;28;20201;-78
2021/07/24 11:00:52;;;;;;;35.43;14.33;;;25.20;20.00;;;;;;5045892;28;20442;-78
2021/07/24 11:03:32;;;;;;;20.67;14.53;;;25.10;19.90;;;;;;5053165;28;20902;-78
2021/07/24 11:05:58;;;;;;;20.13;13.70;;;25.00;20.20;;;;;;5033104;28;20424;-77
2021/07/24 11:09:02;;;;;;;19.30;13.90;;;25.00;20.10;;;;;;5052915;28;20484;-76
2021/07/24 11:11:41;;;;;;;29.20;15.23;;;24.90;20.40;;;;;;5051265;28;20464;-76
2021/07/24 11:14:08;;;;;;;37.73;15.13;;;24.80;21.10;;;;;;5045283;28;20482;-79
2021/07/24 11:17:11;;;;;;;21.53;15.10;;;24.70;21.70;;;;;;5037656;28;20779;-78
2021/07/24 11:19:51;;;;;;;22.73;14.17;;;24.60;21.40;;;;;;4985611;28;20455;-78
2021/07/24 11:22:19;;;;;;;25.07;15.53;;;24.60;21.70;;;;;;5041977;28;20885;-77
2021/07/24 11:25:04;;;;;;;30.53;15.23;;;24.60;22.00;;;;;;5055151;28;20429;-77
2021/07/24 11:27:33;;;;;;;24.30;16.20;;;24.50;22.20;;;;;;5050803;28;20445;-78
2021/07/24 11:30:05;;;;;;;22.97;14.83;;;24.50;22.40;;;;;;5033127;28;20458;-78
2021/07/24 11:32:35;;;;;;;25.63;15.30;;;24.50;23.20;;;;;;5036512;28;20427;-77
2021/07/24 11:35:14;;;;;;;21.57;14.87;;;24.50;22.50;;;;;;5055837;28;20416;-76
2021/07/24 11:37:43;;;;;;;23.87;15.47;;;24.60;22.60;;;;;;5061933;28;20457;-77
2021/07/24 11:40:20;;;;;;;21.27;15.33;;;24.70;22.50;;;;;;5064055;28;20405;-77
2021/07/24 11:43:02;;;;;;;22.67;15.10;;;24.80;22.80;;;;;;5038406;28;20416;-77
2021/07/24 11:45:31;;;;;;;20.60;15.03;;;24.90;22.40;;;;;;5057981;28;20529;-77
2021/07/24 11:48:12;;;;;;;24.17;16.10;;;25.10;21.90;;;;;;5058189;28;20517;-77
2021/07/24 11:50:44;;;;;;;26.53;16.10;;;25.20;20.90;;;;;;5066003;23;20573;-72
2021/07/24 11:53:11;;;;;;;21.47;15.10;;;25.30;20.60;;;;;;5031014;28;20511;-72
2021/07/24 11:55:40;;;;;;;21.70;14.90;;;25.60;20.00;;;;;;5031586;28;20463;-73
2021/07/24 11:58:08;;;;;;;22.67;15.63;;;25.60;19.50;;;;;;5025073;28;20470;-72
2021/07/24 12:00:37;;;;;;;22.30;14.37;;;25.70;19.40;;;;;;5013919;28;20787;-72
2021/07/24 12:03:17;;;;;;;19.50;14.83;;;25.80;19.30;;;;;;5051969;28;20415;-73
2021/07/24 12:05:44;;;;;;;20.63;15.50;;;25.80;19.40;;;;;;5040592;28;20422;-73
2021/07/24 12:08:10;;;;;;;24.10;16.43;;;25.90;19.20;;;;;;5051241;28;20408;-73
2021/07/24 12:10:39;;;;;;;24.90;16.60;;;26.00;19.40;;;;;;5050146;28;20451;-73
2021/07/24 12:13:06;;;;;;;26.77;15.37;;;26.00;19.00;;;;;;5045182;28;20483;-73
2021/07/24 12:15:58;;;;;;;27.67;17.00;;;25.80;18.40;;;;;;5050462;28;20463;-73
2021/07/24 12:18:24;;;;;;;23.30;16.00;;;25.90;18.90;;;;;;5029458;28;20469;-73
2021/07/24 12:20:50;;;;;;;25.80;15.13;;;25.90;17.90;;;;;;5036504;28;20836;-73
2021/07/24 12:23:20;;;;;;;20.10;15.70;;;25.80;18.30;;;;;;5040611;28;20425;-73
2021/07/24 12:26:04;;;;;;;25.53;15.70;;;25.90;18.60;;;;;;5040365;28;20264;-73
2021/07/24 12:28:29;;;;;;;24.77;15.57;;;26.00;18.30;;;;;;5046031;28;20458;-73
2021/07/24 12:31:21;;;;;;;26.40;16.20;;;25.90;18.20;;;;;;5049918;28;20486;-74
2021/07/24 12:33:51;;;;;;;21.50;14.00;;;26.10;18.50;;;;;;5032614;28;20205;-72